createdAt,value
2022-11-16T00:00:23.775Z,3.50
2022-11-16T00:02:25.358Z,3.50
2022-11-16T00:04:26.902Z,3.60
2022-11-16T00:06:29.288Z,3.90
2022-11-16T00:08:36.516Z,3.30
2022-11-16T00:10:38.130Z,3.63
2022-11-16T00:12:39.803Z,3.50
2022-11-16T00:14:41.256Z,3.40
2022-11-16T00:16:42.727Z,3.58
2022-11-16T00:18:44.510Z,3.60
2022-11-16T00:20:46.011Z,3.35
2022-11-16T00:22:47.429Z,3.85
2022-11-16T00:24:49.272Z,3.50
2022-11-16T00:26:53.187Z,3.70
2022-11-16T00:28:55.408Z,3.42
2022-11-16T00:31:02.226Z,3.28
2022-11-16T00:33:04.910Z,4.30
2022-11-16T00:35:07.195Z,3.35
2022-11-16T00:37:08.714Z,3.00
2022-11-16T00:39:12.004Z,3.08
2022-11-16T00:41:13.872Z,3.20
2022-11-16T00:43:15.356Z,3.22
2022-11-16T00:45:16.784Z,4.20
2022-11-16T00:47:18.311Z,3.50
2022-11-16T00:49:19.852Z,3.42
2022-11-16T00:51:21.296Z,3.75
2022-11-16T00:53:22.730Z,3.42
2022-11-16T00:55:24.175Z,3.38
2022-11-16T00:57:25.606Z,3.47
2022-11-16T00:59:27.088Z,3.60
2022-11-16T01:01:29.032Z,3.05
2022-11-16T01:03:30.513Z,3.38
2022-11-16T01:05:32.082Z,3.58
2022-11-16T01:07:35.670Z,3.35
2022-11-16T01:09:37.177Z,3.92
2022-11-16T01:11:57.265Z,3.65
2022-11-16T01:13:59.040Z,3.35
2022-11-16T01:16:00.468Z,3.80
2022-11-16T01:18:01.924Z,3.10
2022-11-16T01:20:06.095Z,3.33
2022-11-16T01:22:08.653Z,3.40
2022-11-16T01:24:10.117Z,4.03
2022-11-16T01:26:11.618Z,3.63
2022-11-16T01:28:13.057Z,3.63
2022-11-16T01:30:15.882Z,3.20
2022-11-16T01:32:17.324Z,3.70
2022-11-16T01:34:18.841Z,3.60
2022-11-16T01:36:20.310Z,3.42
2022-11-16T01:38:24.874Z,3.95
2022-11-16T01:40:29.962Z,3.55
2022-11-16T01:42:31.962Z,3.80
2022-11-16T01:44:33.349Z,3.75
2022-11-16T01:46:34.789Z,3.83
2022-11-16T01:48:36.604Z,4.00
2022-11-16T01:50:39.002Z,3.22
2022-11-16T01:52:46.109Z,3.70
2022-11-16T01:54:51.266Z,3.63
2022-11-16T01:56:55.951Z,3.70
2022-11-16T01:58:57.762Z,4.03
2022-11-16T02:00:59.535Z,3.55
2022-11-16T02:03:01.001Z,3.85
2022-11-16T02:05:03.625Z,3.85
2022-11-16T02:07:23.441Z,3.85
2022-11-16T02:09:59.288Z,3.60
2022-11-16T02:12:29.913Z,3.97
2022-11-16T02:14:47.277Z,4.00
2022-11-16T02:17:11.655Z,3.97
2022-11-16T02:19:34.836Z,3.28
2022-11-16T02:21:51.293Z,3.83
2022-11-16T02:23:55.508Z,3.90
2022-11-16T02:26:03.078Z,3.67
2022-11-16T02:28:16.427Z,3.85
2022-11-16T02:30:20.191Z,3.80
2022-11-16T02:32:47.977Z,3.90
2022-11-16T02:34:55.897Z,4.45
2022-11-16T02:37:01.501Z,4.22
2022-11-16T02:39:10.424Z,3.67
2022-11-16T02:41:17.122Z,4.00
2022-11-16T02:43:31.532Z,3.30
2022-11-16T02:45:38.034Z,4.07
2022-11-16T02:47:41.803Z,3.75
2022-11-16T02:49:47.649Z,4.07
2022-11-16T02:51:50.801Z,3.92
2022-11-16T02:53:58.068Z,3.60
2022-11-16T02:55:59.876Z,4.50
2022-11-16T02:58:03.581Z,3.95
2022-11-16T03:00:06.582Z,3.90
2022-11-16T03:02:27.187Z,3.90
2022-11-16T03:04:36.244Z,4.20
2022-11-16T03:06:41.538Z,4.25
2022-11-16T03:08:47.955Z,4.18
2022-11-16T03:11:19.103Z,3.80
2022-11-16T03:13:23.130Z,4.20
2022-11-16T03:15:26.127Z,4.25
2022-11-16T03:17:44.489Z,4.03
2022-11-16T03:19:58.406Z,4.25
2022-11-16T03:22:07.227Z,4.40
2022-11-16T03:26:14.080Z,4.78
2022-11-16T03:28:20.181Z,4.45
2022-11-16T03:30:24.236Z,4.75
2022-11-16T03:32:30.304Z,4.65
2022-11-16T03:34:35.791Z,4.55
2022-11-16T03:36:41.780Z,4.80
2022-11-16T03:38:46.406Z,3.90
2022-11-16T03:40:50.055Z,4.47
2022-11-16T03:42:52.343Z,4.63
2022-11-16T03:44:55.030Z,4.68
2022-11-16T03:46:56.573Z,5.72
2022-11-16T03:48:59.387Z,5.85
2022-11-16T03:51:01.009Z,5.53
2022-11-16T03:53:02.443Z,5.22
2022-11-16T03:55:05.063Z,5.03
2022-11-16T03:57:06.549Z,5.38
2022-11-16T03:59:08.025Z,5.60
2022-11-16T04:01:09.849Z,5.57
2022-11-16T04:03:11.331Z,5.97
2022-11-16T04:05:31.232Z,6.00
2022-11-16T04:07:51.106Z,6.00
2022-11-16T04:10:10.860Z,6.18
2022-11-16T04:12:30.754Z,5.85
2022-11-16T04:14:51.007Z,5.68
2022-11-16T04:17:10.814Z,6.10
2022-11-16T04:19:30.532Z,5.95
2022-11-16T04:21:57.260Z,6.22
2022-11-16T04:24:13.634Z,5.93
2022-11-16T04:26:15.300Z,6.25
2022-11-16T04:28:19.916Z,6.57
2022-11-16T04:30:21.515Z,6.65
2022-11-16T04:32:41.786Z,6.13
2022-11-16T04:35:02.216Z,7.10
2022-11-16T04:37:22.528Z,6.97
2022-11-16T04:39:23.966Z,6.85
2022-11-16T04:41:44.336Z,7.22
2022-11-16T04:43:45.771Z,7.20
2022-11-16T04:46:05.442Z,8.05
2022-11-16T04:48:07.414Z,7.00
2022-11-16T04:50:08.971Z,6.85
2022-11-16T04:52:10.591Z,7.07
2022-11-16T04:54:12.117Z,7.65
2022-11-16T04:56:13.622Z,7.40
2022-11-16T04:58:15.047Z,7.63
2022-11-16T05:00:17.210Z,7.50
2022-11-16T05:02:18.781Z,7.82
2022-11-16T05:04:20.253Z,7.53
2022-11-16T05:06:21.687Z,8.55
2022-11-16T05:08:23.095Z,7.80
2022-11-16T05:10:24.533Z,7.97
2022-11-16T05:12:27.892Z,8.02
2022-11-16T05:14:29.370Z,8.50
2022-11-16T05:16:30.883Z,8.68
2022-11-16T05:18:32.675Z,9.48
2022-11-16T05:20:53.037Z,8.60
2022-11-16T05:22:56.396Z,8.48
2022-11-16T05:24:57.920Z,8.68
2022-11-16T05:27:10.578Z,9.45
2022-11-16T05:29:12.032Z,9.15
2022-11-16T05:31:13.465Z,9.52
2022-11-16T05:33:16.462Z,9.13
2022-11-16T05:35:17.970Z,9.75
2022-11-16T05:37:21.122Z,9.55
2022-11-16T05:39:23.269Z,9.65
2022-11-16T05:41:24.713Z,9.85
2022-11-16T05:43:26.158Z,9.32
2022-11-16T05:45:27.609Z,10.20
2022-11-16T05:47:29.139Z,10.30
2022-11-16T05:49:30.880Z,10.63
2022-11-16T05:51:32.362Z,10.15
2022-11-16T05:53:33.789Z,11.00
2022-11-16T05:55:35.921Z,10.95
2022-11-16T05:57:37.332Z,11.70
2022-11-16T05:59:38.771Z,11.13
2022-11-16T06:01:40.664Z,11.18
2022-11-16T06:03:42.226Z,11.10
2022-11-16T06:05:43.655Z,11.68
2022-11-16T06:07:45.091Z,11.35
2022-11-16T06:09:46.523Z,12.23
2022-11-16T06:11:48.139Z,11.55
2022-11-16T06:13:49.688Z,11.57
2022-11-16T06:15:51.135Z,12.40
2022-11-16T06:17:52.640Z,12.02
2022-11-16T06:19:54.107Z,13.00
2022-11-16T06:21:55.582Z,12.07
2022-11-16T06:23:57.084Z,12.82
2022-11-16T06:25:58.651Z,13.15
2022-11-16T06:28:04.003Z,13.23
2022-11-16T06:30:08.448Z,13.00
2022-11-16T06:32:09.887Z,12.85
2022-11-16T06:34:11.441Z,13.05
2022-11-16T06:36:12.877Z,12.77
2022-11-16T06:38:18.615Z,14.40
2022-11-16T06:40:20.031Z,12.93
2022-11-16T06:42:21.461Z,12.65
2022-11-16T06:44:22.933Z,13.85
2022-11-16T06:46:24.895Z,14.02
2022-11-16T06:48:26.570Z,13.32
2022-11-16T06:50:28.021Z,13.27
2022-11-16T06:52:29.582Z,13.70
2022-11-16T06:54:31.101Z,13.57
2022-11-16T06:56:34.827Z,13.48
2022-11-16T06:58:36.641Z,13.57
2022-11-16T07:00:38.516Z,14.02
2022-11-16T07:02:40.378Z,13.82
2022-11-16T07:04:41.854Z,14.43
2022-11-16T07:06:43.374Z,14.50
2022-11-16T07:08:44.862Z,15.02
2022-11-16T07:10:46.291Z,14.95
2022-11-16T07:12:47.934Z,14.85
2022-11-16T07:14:49.402Z,14.38
2022-11-16T07:16:54.870Z,15.10
2022-11-16T07:18:59.622Z,13.50
2022-11-16T07:21:10.052Z,14.80
2022-11-16T07:23:14.199Z,15.32
2022-11-16T07:25:15.972Z,14.82
2022-11-16T07:27:17.402Z,14.77
2022-11-16T07:29:19.417Z,14.68
2022-11-16T07:31:20.891Z,16.10
2022-11-16T07:33:22.450Z,14.60
2022-11-16T07:35:23.880Z,14.77
2022-11-16T07:37:25.345Z,13.88
2022-11-16T07:39:26.936Z,15.38
2022-11-16T07:41:28.374Z,18.13
2022-11-16T07:43:35.195Z,15.45
2022-11-16T07:45:36.619Z,15.55
2022-11-16T07:47:38.328Z,15.73
2022-11-16T07:49:40.090Z,14.77
2022-11-16T07:51:41.690Z,15.25
2022-11-16T07:53:43.908Z,15.65
2022-11-16T07:55:52.959Z,15.80
2022-11-16T07:57:54.411Z,14.90
2022-11-16T07:59:56.132Z,15.13
2022-11-16T08:01:59.287Z,15.85
2022-11-16T08:04:01.868Z,15.82
2022-11-16T08:06:19.390Z,15.82
2022-11-16T08:08:20.827Z,15.48
2022-11-16T08:10:23.262Z,15.32
2022-11-16T08:12:24.833Z,15.68
2022-11-16T08:14:26.311Z,15.98
2022-11-16T08:16:27.923Z,15.52
2022-11-16T08:18:29.929Z,15.40
2022-11-16T08:20:31.498Z,14.50
2022-11-16T08:22:32.951Z,16.17
2022-11-16T08:24:34.439Z,15.95
2022-11-16T08:26:35.875Z,15.23
2022-11-16T08:28:37.885Z,15.18
2022-11-16T08:30:39.846Z,15.80
2022-11-16T08:32:42.192Z,15.23
2022-11-16T08:34:43.616Z,16.67
2022-11-16T08:36:45.040Z,15.45
2022-11-16T08:38:48.581Z,15.15
2022-11-16T08:40:50.860Z,14.52
2022-11-16T08:42:56.977Z,14.75
2022-11-16T08:44:58.450Z,14.60
2022-11-16T08:47:00.229Z,14.80
2022-11-16T08:49:01.698Z,15.30
2022-11-16T08:51:19.339Z,15.98
2022-11-16T08:53:21.482Z,14.48
2022-11-16T08:55:23.874Z,16.00
2022-11-16T08:57:25.345Z,14.95
2022-11-16T08:59:26.847Z,16.08
2022-11-16T09:01:30.831Z,14.55
2022-11-16T09:03:32.283Z,15.75
2022-11-16T09:05:33.720Z,15.30
2022-11-16T09:07:35.205Z,14.48
2022-11-16T09:09:36.706Z,15.38
2022-11-16T09:11:38.196Z,15.07
2022-11-16T09:13:39.743Z,14.45
2022-11-16T09:15:41.232Z,14.23
2022-11-16T09:17:42.667Z,14.48
2022-11-16T09:19:44.177Z,15.00
2022-11-16T09:21:45.642Z,14.85
2022-11-16T09:23:48.125Z,14.98
2022-11-16T09:25:49.594Z,15.10
2022-11-16T09:27:51.046Z,14.90
2022-11-16T09:29:52.508Z,14.75
2022-11-16T09:31:55.323Z,15.13
2022-11-16T09:33:58.804Z,13.70
2022-11-16T09:36:07.262Z,14.57
2022-11-16T09:38:09.980Z,13.93
2022-11-16T09:40:12.523Z,14.80
2022-11-16T09:42:27.392Z,14.23
2022-11-16T09:44:53.537Z,14.20
2022-11-16T09:47:00.354Z,14.45
2022-11-16T09:49:16.867Z,14.77
2022-11-16T09:51:21.694Z,14.77
2022-11-16T09:53:46.084Z,14.50
2022-11-16T09:55:51.464Z,15.07
2022-11-16T09:57:57.938Z,15.32
2022-11-16T10:00:04.472Z,14.85
2022-11-16T10:02:21.059Z,14.93
2022-11-16T10:04:40.383Z,15.63
2022-11-16T10:06:48.327Z,14.30
2022-11-16T10:08:56.636Z,15.30
2022-11-16T10:11:17.847Z,15.23
2022-11-16T10:13:31.354Z,14.95
2022-11-16T10:15:57.614Z,14.80
2022-11-16T10:18:04.818Z,14.95
2022-11-16T10:20:27.658Z,14.43
2022-11-16T10:22:55.317Z,14.13
2022-11-16T10:25:01.056Z,13.73
2022-11-16T10:27:32.811Z,16.13
2022-11-16T10:29:48.163Z,14.73
2022-11-16T10:32:20.991Z,13.63
2022-11-16T10:34:27.579Z,14.18
2022-11-16T10:36:32.645Z,14.50
2022-11-16T10:38:34.921Z,14.82
2022-11-16T10:40:38.020Z,14.38
2022-11-16T10:42:39.519Z,16.30
2022-11-16T10:44:48.135Z,14.02
2022-11-16T10:47:23.134Z,15.68
2022-11-16T10:49:37.458Z,15.02
2022-11-16T10:51:38.987Z,14.15
2022-11-16T10:53:43.823Z,14.05
2022-11-16T10:55:45.240Z,15.45
2022-11-16T10:58:03.927Z,14.88
2022-11-16T11:04:30.345Z,13.50
2022-11-16T11:06:31.835Z,14.50
2022-11-16T11:08:34.042Z,14.98
2022-11-16T11:10:40.712Z,14.93
2022-11-16T11:13:20.876Z,14.68
2022-11-16T11:15:27.092Z,15.20
2022-11-16T11:17:30.660Z,13.82
2022-11-16T11:19:32.075Z,15.95
2022-11-16T11:21:33.520Z,14.48
2022-11-16T11:23:44.325Z,14.63
2022-11-16T11:25:53.883Z,14.57
2022-11-16T11:28:20.242Z,15.05
2022-11-16T11:30:22.398Z,14.30
2022-11-16T11:32:30.753Z,14.75
2022-11-16T11:34:40.562Z,14.82
2022-11-16T11:36:52.693Z,15.68
2022-11-16T11:39:03.272Z,15.15
2022-11-16T11:41:07.489Z,14.77
2022-11-16T11:43:22.862Z,14.27
2022-11-16T11:45:48.342Z,14.10
2022-11-16T11:47:59.868Z,15.02
2022-11-16T11:50:11.076Z,14.18
2022-11-16T11:52:20.780Z,13.75
2022-11-16T11:54:27.847Z,13.98
2022-11-16T11:56:31.891Z,14.93
2022-11-16T11:58:36.981Z,13.55
2022-11-16T12:01:03.348Z,13.82
2022-11-16T12:03:26.700Z,13.75
2022-11-16T12:05:44.056Z,13.35
2022-11-16T12:07:57.724Z,14.57
2022-11-16T12:10:36.135Z,13.13
2022-11-16T12:13:03.173Z,13.70
2022-11-16T12:15:21.432Z,13.25
2022-11-16T12:17:40.745Z,12.98
2022-11-16T12:20:03.071Z,12.88
2022-11-16T12:22:10.440Z,13.00
2022-11-16T12:24:15.028Z,13.75
2022-11-16T12:26:46.075Z,12.93
2022-11-16T12:28:56.252Z,13.50
2022-11-16T12:31:28.400Z,12.93
2022-11-16T12:33:54.500Z,12.57
2022-11-16T12:36:08.606Z,13.02
2022-11-16T12:38:29.820Z,13.35
2022-11-16T12:40:50.218Z,13.10
2022-11-16T12:42:58.591Z,12.52
2022-11-16T12:45:30.554Z,13.27
2022-11-16T12:48:01.009Z,12.57
2022-11-16T12:50:40.152Z,13.32
2022-11-16T12:52:56.799Z,12.48
2022-11-16T12:55:26.804Z,15.77
2022-11-16T12:57:56.819Z,12.55
2022-11-16T12:59:58.188Z,13.25
2022-11-16T13:02:13.927Z,12.75
2022-11-16T13:04:35.378Z,12.68
2022-11-16T13:06:55.190Z,11.95
2022-11-16T13:09:45.587Z,11.95
2022-11-16T13:11:57.389Z,12.05
2022-11-16T13:14:03.944Z,11.00
2022-11-16T13:16:07.267Z,11.77
2022-11-16T13:18:15.397Z,11.00
2022-11-16T13:21:05.503Z,11.50
2022-11-16T13:23:50.222Z,10.65
2022-11-16T13:26:17.241Z,10.15
2022-11-16T13:28:45.382Z,9.80
2022-11-16T13:31:30.282Z,10.20
2022-11-16T13:33:50.737Z,9.75
2022-11-16T13:35:52.878Z,9.48
2022-11-16T13:37:54.412Z,9.82
2022-11-16T13:39:58.522Z,9.32
2022-11-16T13:42:11.442Z,9.60
2022-11-16T13:44:20.373Z,8.82
2022-11-16T13:46:48.829Z,9.13
2022-11-16T13:48:45.825Z,9.35
2022-11-16T13:50:56.252Z,8.68
2022-11-16T13:53:57.592Z,9.98
2022-11-16T13:55:31.629Z,10.40
2022-11-16T13:57:34.633Z,10.40
2022-11-16T13:59:36.704Z,10.30
2022-11-16T14:02:22.735Z,10.38
2022-11-16T14:04:55.909Z,9.80
2022-11-16T14:06:59.432Z,10.63
2022-11-16T14:09:01.103Z,10.30
2022-11-16T14:11:03.241Z,9.73
2022-11-16T14:13:06.260Z,9.73
2022-11-16T14:15:21.912Z,9.15
2022-11-16T14:18:00.961Z,9.13
2022-11-16T14:20:02.506Z,8.90
2022-11-16T14:22:13.091Z,9.55
2022-11-16T14:24:36.789Z,9.35
2022-11-16T14:27:05.874Z,8.98
2022-11-16T14:29:20.575Z,8.82
2022-11-16T14:31:25.921Z,9.65
2022-11-16T14:33:35.907Z,9.30
2022-11-16T14:35:40.105Z,8.98
2022-11-16T14:37:42.360Z,9.95
2022-11-16T14:39:44.638Z,10.18
2022-11-16T14:41:47.170Z,9.55
2022-11-16T14:43:55.254Z,9.50
2022-11-16T14:46:04.398Z,9.05
2022-11-16T14:48:15.413Z,8.93
2022-11-16T14:50:24.798Z,8.75
2022-11-16T14:52:43.877Z,8.88
2022-11-16T14:54:52.375Z,9.00
2022-11-16T14:57:04.983Z,8.23
2022-11-16T14:59:06.422Z,9.32
2022-11-16T15:01:14.520Z,8.18
2022-11-16T15:03:16.120Z,9.00
2022-11-16T15:05:20.904Z,7.78
2022-11-16T15:07:23.954Z,9.25
2022-11-16T15:09:40.487Z,8.43
2022-11-16T15:12:01.406Z,7.63
2022-11-16T15:14:02.921Z,8.10
2022-11-16T15:16:16.163Z,7.43
2022-11-16T15:18:20.808Z,7.70
2022-11-16T15:20:25.124Z,6.95
2022-11-16T15:22:30.847Z,8.02
2022-11-16T15:24:35.288Z,7.35
2022-11-16T15:26:38.497Z,7.18
2022-11-16T15:28:40.225Z,7.10
2022-11-16T15:30:44.951Z,7.28
2022-11-16T15:32:49.751Z,7.15
2022-11-16T15:34:53.776Z,6.82
2022-11-16T15:36:55.223Z,6.75
2022-11-16T15:38:58.771Z,7.05
2022-11-16T15:41:03.568Z,7.60
2022-11-16T15:43:06.529Z,6.60
2022-11-16T15:45:22.261Z,6.72
2022-11-16T15:47:24.614Z,6.68
2022-11-16T15:49:53.148Z,6.28
2022-11-16T15:54:21.571Z,6.05
2022-11-16T15:56:26.011Z,6.65
2022-11-16T15:58:32.269Z,6.85
2022-11-16T16:00:37.470Z,6.45
2022-11-16T16:02:43.170Z,6.10
2022-11-16T16:04:44.723Z,6.95
2022-11-16T16:06:55.133Z,6.85
2022-11-16T16:09:06.648Z,6.72
2022-11-16T16:11:27.407Z,6.82
2022-11-16T16:13:41.514Z,6.45
2022-11-16T16:15:42.992Z,6.35
2022-11-16T16:17:47.244Z,6.90
2022-11-16T16:19:57.885Z,6.07
2022-11-16T16:21:59.984Z,6.43
2022-11-16T16:24:01.426Z,6.70
2022-11-16T16:26:03.951Z,6.53
2022-11-16T16:28:05.421Z,6.53
2022-11-16T16:30:08.605Z,6.65
2022-11-16T16:32:20.843Z,6.32
2022-11-16T16:34:22.318Z,6.57
2022-11-16T16:36:23.723Z,6.32
2022-11-16T16:38:25.215Z,6.78
2022-11-16T16:40:27.882Z,6.93
2022-11-16T16:42:29.314Z,6.82
2022-11-16T16:44:30.742Z,6.88
2022-11-16T16:46:32.174Z,6.43
2022-11-16T16:48:33.609Z,5.93
2022-11-16T16:50:36.234Z,6.30
2022-11-16T16:52:37.671Z,6.38
2022-11-16T16:54:40.295Z,6.70
2022-11-16T16:56:41.737Z,6.82
2022-11-16T16:58:43.311Z,6.95
2022-11-16T17:00:44.945Z,6.53
2022-11-16T17:02:46.440Z,6.57
2022-11-16T17:04:48.488Z,6.60
2022-11-16T17:06:53.811Z,6.68
2022-11-16T17:08:55.699Z,5.75
2022-11-16T17:10:57.118Z,6.93
2022-11-16T17:12:58.833Z,5.88
2022-11-16T17:15:00.636Z,6.35
2022-11-16T17:17:02.188Z,6.18
2022-11-16T17:19:04.619Z,6.68
2022-11-16T17:21:07.803Z,6.03
2022-11-16T17:23:09.317Z,6.07
2022-11-16T17:25:10.899Z,5.85
2022-11-16T17:27:12.368Z,5.50
2022-11-16T17:29:14.199Z,6.22
2022-11-16T17:31:17.376Z,5.90
2022-11-16T17:33:18.793Z,5.55
2022-11-16T17:35:20.254Z,5.70
2022-11-16T17:37:21.689Z,5.00
2022-11-16T17:39:24.772Z,6.38
2022-11-16T17:41:26.310Z,5.50
2022-11-16T17:43:27.835Z,5.28
2022-11-16T17:45:29.334Z,5.72
2022-11-16T17:47:32.957Z,4.88
2022-11-16T17:49:34.395Z,5.20
2022-11-16T17:51:35.812Z,5.00
2022-11-16T17:53:37.772Z,4.53
2022-11-16T17:55:39.495Z,5.22
2022-11-16T17:57:41.010Z,4.70
2022-11-16T17:59:42.445Z,5.30
2022-11-16T18:01:44.011Z,4.90
2022-11-16T18:03:45.649Z,5.25
2022-11-16T18:05:47.086Z,4.72
2022-11-16T18:07:48.524Z,4.53
2022-11-16T18:09:50.007Z,4.82
2022-11-16T18:11:51.425Z,5.45
2022-11-16T18:13:54.930Z,4.30
2022-11-16T18:16:07.444Z,4.53
2022-11-16T18:18:08.969Z,5.68
2022-11-16T18:20:11.134Z,5.18
2022-11-16T18:22:12.575Z,4.63
2022-11-16T18:24:14.304Z,4.70
2022-11-16T18:26:18.800Z,4.80
2022-11-16T18:28:20.277Z,4.45
2022-11-16T18:30:23.381Z,4.38
2022-11-16T18:32:24.830Z,4.38
2022-11-16T18:34:26.294Z,4.88
2022-11-16T18:36:27.790Z,5.13
2022-11-16T18:38:29.348Z,5.10
2022-11-16T18:40:30.927Z,5.13
2022-11-16T18:42:32.363Z,4.85
2022-11-16T18:44:33.890Z,4.65
2022-11-16T18:46:35.456Z,4.70
2022-11-16T18:48:36.976Z,4.25
2022-11-16T18:50:38.492Z,4.38
2022-11-16T18:52:40.484Z,4.65
2022-11-16T18:54:41.918Z,3.72
2022-11-16T18:56:43.346Z,4.45
2022-11-16T18:58:53.410Z,3.78
2022-11-16T19:00:55.170Z,3.83
2022-11-16T19:02:56.643Z,4.30
2022-11-16T19:04:58.073Z,4.15
2022-11-16T19:06:59.523Z,3.83
2022-11-16T19:09:01.113Z,4.20
2022-11-16T19:11:07.023Z,3.65
2022-11-16T19:13:08.497Z,4.22
2022-11-16T19:15:10.326Z,3.75
2022-11-16T19:17:11.754Z,4.25
2022-11-16T19:19:13.199Z,4.03
2022-11-16T19:21:18.359Z,4.18
2022-11-16T19:23:19.885Z,4.03
2022-11-16T19:25:21.344Z,4.15
2022-11-16T19:27:22.825Z,4.20
2022-11-16T19:29:24.499Z,3.92
2022-11-16T19:31:28.885Z,3.92
2022-11-16T19:33:30.332Z,3.65
2022-11-16T19:35:31.998Z,4.05
2022-11-16T19:37:33.548Z,4.05
2022-11-16T19:39:35.046Z,4.22
2022-11-16T19:41:36.568Z,4.15
2022-11-16T19:43:38.505Z,3.42
2022-11-16T19:45:40.129Z,3.70
2022-11-16T19:47:41.688Z,3.55
2022-11-16T19:49:43.137Z,3.67
2022-11-16T19:51:44.543Z,3.22
2022-11-16T19:53:46.567Z,3.25
2022-11-16T19:55:55.029Z,3.20
2022-11-16T19:57:56.509Z,2.58
2022-11-16T19:59:58.216Z,3.20
2022-11-16T20:01:59.708Z,2.35
2022-11-16T20:04:03.420Z,2.70
2022-11-16T20:06:09.240Z,2.50
2022-11-16T20:08:11.134Z,2.70
2022-11-16T20:10:12.708Z,2.35
2022-11-16T20:12:14.162Z,2.50
2022-11-16T20:14:15.696Z,2.65
2022-11-16T20:16:18.723Z,2.20
2022-11-16T20:18:20.147Z,2.20
2022-11-16T20:20:21.601Z,2.10
2022-11-16T20:22:23.084Z,2.20
2022-11-16T20:24:24.503Z,2.15
2022-11-16T20:26:28.369Z,1.98
2022-11-16T20:28:33.887Z,1.92
2022-11-16T20:30:35.302Z,2.08
2022-11-16T20:32:36.851Z,2.20
2022-11-16T20:34:38.397Z,2.35
2022-11-16T20:36:42.191Z,1.90
2022-11-16T20:38:43.616Z,2.35
2022-11-16T20:40:45.046Z,2.05
2022-11-16T20:42:47.107Z,1.92
2022-11-16T20:44:48.598Z,2.65
2022-11-16T20:46:53.353Z,2.10
2022-11-16T20:48:56.959Z,2.17
2022-11-16T20:50:58.392Z,2.08
2022-11-16T20:52:59.948Z,2.00
2022-11-16T20:55:01.376Z,2.30
2022-11-16T20:57:04.669Z,2.00
2022-11-16T20:59:06.110Z,2.05
2022-11-16T21:01:10.833Z,2.42
2022-11-16T21:03:12.336Z,2.38
2022-11-16T21:05:13.844Z,2.00
2022-11-16T21:07:15.855Z,2.10
2022-11-16T21:09:22.519Z,2.22
2022-11-16T21:11:28.882Z,2.40
2022-11-16T21:13:48.785Z,2.63
2022-11-16T21:16:04.847Z,3.42
2022-11-16T21:18:06.321Z,2.67
2022-11-16T21:22:32.894Z,2.20
2022-11-16T21:24:34.735Z,2.60
2022-11-16T21:26:37.301Z,2.60
2022-11-16T21:28:39.749Z,2.25
2022-11-16T21:30:41.187Z,2.13
2022-11-16T21:32:42.680Z,2.33
2022-11-16T21:34:44.142Z,2.58
2022-11-16T21:36:45.650Z,2.30
2022-11-16T21:38:47.610Z,2.40
2022-11-16T21:40:49.700Z,2.10
2022-11-16T21:42:51.892Z,2.25
2022-11-16T21:44:53.307Z,2.40
2022-11-16T21:46:54.752Z,2.47
2022-11-16T21:48:56.608Z,2.30
2022-11-16T21:51:03.222Z,2.22
2022-11-16T21:53:06.111Z,2.38
2022-11-16T21:55:07.982Z,2.28
2022-11-16T21:57:09.402Z,2.03
2022-11-16T21:59:10.850Z,1.83
2022-11-16T22:01:13.518Z,2.60
2022-11-16T22:03:15.144Z,2.20
2022-11-16T22:05:35.718Z,2.70
2022-11-16T22:07:37.277Z,2.30
2022-11-16T22:09:38.790Z,2.97
2022-11-16T22:11:40.242Z,3.15
2022-11-16T22:13:42.345Z,2.78
2022-11-16T22:15:43.810Z,2.25
2022-11-16T22:17:45.440Z,2.55
2022-11-16T22:19:47.073Z,3.08
2022-11-16T22:21:48.481Z,2.60
2022-11-16T22:23:49.963Z,2.80
2022-11-16T22:25:51.638Z,3.05
2022-11-16T22:28:19.212Z,3.15
2022-11-16T22:30:15.058Z,2.75
2022-11-16T22:32:16.488Z,4.43
2022-11-16T22:34:17.921Z,2.58
2022-11-16T22:36:19.380Z,3.10
2022-11-16T22:38:20.844Z,2.50
2022-11-16T22:40:22.268Z,2.67
2022-11-16T22:42:23.716Z,2.65
2022-11-16T22:44:25.144Z,2.45
2022-11-16T22:46:26.591Z,2.40
2022-11-16T22:48:39.498Z,2.60
2022-11-16T22:50:42.115Z,2.47
2022-11-16T22:52:43.635Z,2.22
2022-11-16T22:54:45.067Z,2.50
2022-11-16T22:56:47.953Z,2.25
2022-11-16T22:58:49.760Z,2.60
2022-11-16T23:00:51.731Z,2.63
2022-11-16T23:02:53.278Z,2.90
2022-11-16T23:04:54.745Z,2.95
2022-11-16T23:06:56.255Z,2.80
2022-11-16T23:08:57.839Z,2.50
2022-11-16T23:11:38.781Z,2.50
2022-11-16T23:13:58.444Z,2.60
2022-11-16T23:16:04.440Z,3.10
2022-11-16T23:18:06.016Z,2.78
2022-11-16T23:20:26.832Z,2.50
2022-11-16T23:22:46.786Z,2.42
2022-11-16T23:25:06.632Z,2.65
2022-11-16T23:27:27.990Z,2.65
2022-11-16T23:29:29.480Z,2.70
2022-11-16T23:31:30.925Z,2.63
2022-11-16T23:33:44.127Z,2.97
2022-11-16T23:35:45.547Z,2.35
2022-11-16T23:38:00.794Z,2.42
2022-11-16T23:40:02.270Z,2.65
2022-11-16T23:42:22.706Z,2.92
2022-11-16T23:44:24.143Z,2.70
2022-11-16T23:46:30.931Z,2.72
2022-11-16T23:48:32.388Z,2.67
2022-11-16T23:50:34.679Z,2.55
2022-11-16T23:52:36.126Z,3.30
2022-11-16T23:54:37.932Z,3.25
2022-11-16T23:56:39.435Z,3.30
2022-11-16T23:58:40.876Z,3.30
